Kingsbury, Indiana
Current Conditions -  °F | °C
As of 12:55 AM on Friday 28 Nov 2014 (Local Time) from KPPO Reporting Station
Clear Clear  
Wind Chill: 22°   Ceiling: Unl
Heat Index: 22°   Visibility: 10mi
Dew Point: 17°   Wind: 3mph
Humidity: 83%   Direction: 270°W
Pressure: 30.35"   Gusts: NA
Location:  41.53°N, 86.7°W
Report Text: KPPO 280655Z AUTO 27003KT 10SM CLR M06/M08 A3035 RMK AO2 T10581083
Loading
Personal Weather Stations






























Interactive Weather Map New forecast layout! Learn more

10-Day Weather Forecast

Advertisements
Track Severe Weather on mobile